createdAt,value
2023-01-15T00:00:11.428Z,9.20
2023-01-15T00:01:35.777Z,9.20
2023-01-15T00:02:57.864Z,9.20
2023-01-15T00:04:19.928Z,9.30
2023-01-15T00:05:41.961Z,9.30
2023-01-15T00:07:04.534Z,9.30
2023-01-15T00:08:26.695Z,9.30
2023-01-15T00:09:50.175Z,9.30
2023-01-15T00:11:12.605Z,9.30
2023-01-15T00:12:34.642Z,9.30
2023-01-15T00:13:56.731Z,9.30
2023-01-15T00:15:18.811Z,9.40
2023-01-15T00:16:40.878Z,9.40
2023-01-15T00:18:03.546Z,9.40
2023-01-15T00:19:25.580Z,9.40
2023-01-15T00:20:47.653Z,9.40
2023-01-15T00:22:09.658Z,9.40
2023-01-15T00:23:50.589Z,9.40
2023-01-15T00:25:31.188Z,9.50
2023-01-15T00:27:12.098Z,9.50
2023-01-15T00:28:34.112Z,9.50
2023-01-15T00:29:56.168Z,9.50
2023-01-15T00:31:18.290Z,9.50
2023-01-15T00:32:41.519Z,9.50
2023-01-15T00:34:04.064Z,9.50
2023-01-15T00:35:26.090Z,9.50
2023-01-15T00:36:48.206Z,9.50
2023-01-15T00:38:10.238Z,9.50
2023-01-15T00:39:33.368Z,9.50
2023-01-15T00:40:55.470Z,9.50
2023-01-15T00:42:17.900Z,9.50
2023-01-15T00:43:40.099Z,9.50
2023-01-15T00:45:09.709Z,9.60
2023-01-15T00:46:33.413Z,9.60
2023-01-15T00:47:55.967Z,9.60
2023-01-15T00:49:18.144Z,9.60
2023-01-15T00:50:40.214Z,9.60
2023-01-15T00:52:02.258Z,9.60
2023-01-15T00:53:24.326Z,9.60
2023-01-15T00:54:48.236Z,9.60
2023-01-15T00:56:10.317Z,9.60
2023-01-15T00:57:32.593Z,9.60
2023-01-15T00:58:54.786Z,9.60
2023-01-15T01:00:17.075Z,9.60
2023-01-15T01:01:39.529Z,9.60
2023-01-15T01:03:01.623Z,9.60
2023-01-15T01:04:23.692Z,9.60
2023-01-15T01:05:45.782Z,9.60
2023-01-15T01:07:07.954Z,9.60
2023-01-15T01:08:30.485Z,9.60
2023-01-15T01:09:52.530Z,9.60
2023-01-15T01:11:17.630Z,9.60
2023-01-15T01:12:39.729Z,9.60
2023-01-15T01:14:02.756Z,9.60
2023-01-15T01:15:25.763Z,9.60
2023-01-15T01:16:47.979Z,9.60
2023-01-15T01:18:10.023Z,9.60
2023-01-15T01:19:32.049Z,9.60
2023-01-15T01:20:54.722Z,9.60
2023-01-15T01:22:16.765Z,9.60
2023-01-15T01:23:38.791Z,9.60
2023-01-15T01:25:00.832Z,9.60
2023-01-15T01:26:22.964Z,9.60
2023-01-15T01:27:46.222Z,9.60
2023-01-15T01:29:08.263Z,9.60
2023-01-15T01:30:30.277Z,9.60
2023-01-15T01:31:52.440Z,9.60
2023-01-15T01:33:14.511Z,9.60
2023-01-15T01:34:36.525Z,9.60
2023-01-15T01:35:58.710Z,9.60
2023-01-15T01:37:20.789Z,9.60
2023-01-15T01:38:42.928Z,9.50
2023-01-15T01:40:05.773Z,9.40
2023-01-15T01:41:28.656Z,9.10
2023-01-15T01:42:50.755Z,8.90
2023-01-15T01:44:35.047Z,8.70
2023-01-15T01:45:57.324Z,8.60
2023-01-15T01:47:23.799Z,8.40
2023-01-15T01:48:46.484Z,8.30
2023-01-15T01:50:13.239Z,8.20
2023-01-15T01:51:40.909Z,8.10
2023-01-15T01:53:14.357Z,8.00
2023-01-15T01:54:38.690Z,8.00
2023-01-15T01:56:01.324Z,7.90
2023-01-15T01:57:24.713Z,7.90
2023-01-15T01:58:51.420Z,7.90
2023-01-15T02:00:15.240Z,7.90
2023-01-15T02:01:37.435Z,7.90
2023-01-15T02:03:01.455Z,7.90
2023-01-15T02:04:26.622Z,7.90
2023-01-15T02:05:53.957Z,7.80
2023-01-15T02:07:17.443Z,7.90
2023-01-15T02:08:39.787Z,7.90
2023-01-15T02:10:01.889Z,7.90
2023-01-15T02:11:24.893Z,7.80
2023-01-15T02:13:02.626Z,7.80
2023-01-15T02:15:03.723Z,7.80
2023-01-15T02:17:04.039Z,7.80
2023-01-15T02:18:34.848Z,7.80
2023-01-15T02:20:05.335Z,7.80
2023-01-15T02:21:45.461Z,7.80
2023-01-15T02:23:16.585Z,7.80
2023-01-15T02:24:44.652Z,7.80
2023-01-15T02:26:44.252Z,7.70
2023-01-15T02:28:16.029Z,7.70
2023-01-15T02:29:58.956Z,7.70
2023-01-15T02:31:43.170Z,7.70
2023-01-15T02:33:10.229Z,7.70
2023-01-15T02:34:36.439Z,7.70
2023-01-15T02:36:06.597Z,7.70
2023-01-15T02:37:33.448Z,7.80
2023-01-15T02:38:58.970Z,7.70
2023-01-15T02:40:23.539Z,7.80
2023-01-15T02:41:51.868Z,7.80
2023-01-15T02:43:16.968Z,7.80
2023-01-15T02:44:45.759Z,7.80
2023-01-15T02:46:09.046Z,7.80
2023-01-15T02:47:35.343Z,7.80
2023-01-15T02:48:58.994Z,7.80
2023-01-15T02:50:27.103Z,7.80
2023-01-15T02:52:01.383Z,7.80
2023-01-15T02:53:26.862Z,7.80
2023-01-15T02:55:12.696Z,7.80
2023-01-15T02:56:37.312Z,7.80
2023-01-15T02:58:03.166Z,7.80
2023-01-15T02:59:34.015Z,7.80
2023-01-15T03:00:59.355Z,7.90
2023-01-15T03:02:26.262Z,7.80
2023-01-15T03:04:12.909Z,7.90
2023-01-15T03:05:48.042Z,7.90
2023-01-15T03:07:31.901Z,7.90
2023-01-15T03:08:54.120Z,7.80
2023-01-15T03:10:17.074Z,7.80
2023-01-15T03:11:57.431Z,7.80
2023-01-15T03:13:35.998Z,7.80
2023-01-15T03:15:33.092Z,7.80
2023-01-15T03:16:59.133Z,7.80
2023-01-15T03:18:22.966Z,7.80
2023-01-15T03:19:56.374Z,7.80
2023-01-15T03:21:26.829Z,7.80
2023-01-15T03:22:54.176Z,7.80
2023-01-15T03:24:24.891Z,7.80
2023-01-15T03:25:49.244Z,7.80
2023-01-15T03:27:11.955Z,7.70
2023-01-15T03:28:37.096Z,7.70
2023-01-15T03:30:28.440Z,7.70
2023-01-15T03:31:50.756Z,7.70
2023-01-15T03:33:15.196Z,7.70
2023-01-15T03:34:51.390Z,7.70
2023-01-15T03:36:13.527Z,7.70
2023-01-15T03:37:35.615Z,7.70
2023-01-15T03:38:58.867Z,7.70
2023-01-15T03:40:24.541Z,7.70
2023-01-15T03:42:20.144Z,7.70
2023-01-15T03:43:50.725Z,7.70
2023-01-15T03:45:28.662Z,7.60
2023-01-15T03:47:05.398Z,7.60
2023-01-15T03:48:44.196Z,7.60
2023-01-15T03:50:23.334Z,7.60
2023-01-15T03:52:16.540Z,7.60
2023-01-15T03:53:47.607Z,7.60
2023-01-15T03:55:38.435Z,7.50
2023-01-15T03:57:20.288Z,7.50
2023-01-15T03:58:47.717Z,7.50
2023-01-15T04:00:18.859Z,7.50
2023-01-15T04:01:44.362Z,7.50
2023-01-15T04:03:08.780Z,7.50
2023-01-15T04:04:31.888Z,7.50
2023-01-15T04:05:57.205Z,7.50
2023-01-15T04:07:20.519Z,7.50
2023-01-15T04:08:45.601Z,7.50
2023-01-15T04:10:09.772Z,7.40
2023-01-15T04:11:31.951Z,7.40
2023-01-15T04:12:54.089Z,7.40
2023-01-15T04:14:16.245Z,7.40
2023-01-15T04:15:38.315Z,7.40
2023-01-15T04:17:00.687Z,7.40
2023-01-15T04:18:22.980Z,7.40
2023-01-15T04:19:45.089Z,7.40
2023-01-15T04:21:07.107Z,7.40
2023-01-15T04:22:29.481Z,7.40
2023-01-15T04:23:51.781Z,7.40
2023-01-15T04:25:13.973Z,7.40
2023-01-15T04:26:35.988Z,7.30
2023-01-15T04:27:58.124Z,7.40
2023-01-15T04:29:20.373Z,7.40
2023-01-15T04:30:43.470Z,7.40
2023-01-15T04:32:05.794Z,7.40
2023-01-15T04:33:27.855Z,7.40
2023-01-15T04:34:50.796Z,7.40
2023-01-15T04:36:14.459Z,7.30
2023-01-15T04:37:36.513Z,7.30
2023-01-15T04:38:59.881Z,7.40
2023-01-15T04:40:40.287Z,7.40
2023-01-15T04:42:20.919Z,7.30
2023-01-15T04:44:01.658Z,7.30
2023-01-15T04:45:23.676Z,7.30
2023-01-15T04:46:47.647Z,7.30
2023-01-15T04:48:09.756Z,7.30
2023-01-15T04:49:32.236Z,7.30
2023-01-15T04:50:55.010Z,7.30
2023-01-15T04:52:17.250Z,7.30
2023-01-15T04:53:39.299Z,7.30
2023-01-15T04:55:01.375Z,7.30
2023-01-15T04:56:23.547Z,7.30
2023-01-15T04:57:45.599Z,7.30
2023-01-15T04:59:07.898Z,7.30
2023-01-15T05:00:30.059Z,7.30
2023-01-15T05:02:03.120Z,7.30
2023-01-15T05:03:26.952Z,7.30
2023-01-15T05:04:50.570Z,7.30
2023-01-15T05:06:14.366Z,7.30
2023-01-15T05:07:36.539Z,7.30
2023-01-15T05:08:59.711Z,7.30
2023-01-15T05:10:21.759Z,7.30
2023-01-15T05:11:43.897Z,7.30
2023-01-15T05:13:06.003Z,7.20
2023-01-15T05:14:28.263Z,7.20
2023-01-15T05:15:50.366Z,7.20
2023-01-15T05:17:12.452Z,7.20
2023-01-15T05:18:34.488Z,7.20
2023-01-15T05:19:56.555Z,7.20
2023-01-15T05:21:22.056Z,7.20
2023-01-15T05:22:44.126Z,7.20
2023-01-15T05:24:08.821Z,7.20
2023-01-15T05:25:30.899Z,7.30
2023-01-15T05:26:53.693Z,7.30
2023-01-15T05:28:15.777Z,7.20
2023-01-15T05:29:37.917Z,7.20
2023-01-15T05:31:05.758Z,7.20
2023-01-15T05:32:27.920Z,7.20
2023-01-15T05:33:50.959Z,7.30
2023-01-15T05:35:12.985Z,7.20
2023-01-15T05:36:37.461Z,7.20
2023-01-15T05:37:59.558Z,7.20
2023-01-15T05:39:21.595Z,7.20
2023-01-15T05:40:43.628Z,7.20
2023-01-15T05:42:05.703Z,7.20
2023-01-15T05:43:27.869Z,7.20
2023-01-15T05:44:49.900Z,7.20
2023-01-15T05:46:11.990Z,7.20
2023-01-15T05:47:35.743Z,7.20
2023-01-15T05:49:07.197Z,7.20
2023-01-15T05:50:29.311Z,7.20
2023-01-15T05:51:52.619Z,7.20
2023-01-15T05:53:14.708Z,7.20
2023-01-15T05:54:36.878Z,7.20
2023-01-15T05:56:01.536Z,7.20
2023-01-15T05:57:23.600Z,7.20
2023-01-15T05:58:45.655Z,7.20
2023-01-15T06:00:08.568Z,7.20
2023-01-15T06:01:30.753Z,7.20
2023-01-15T06:02:52.971Z,7.20
2023-01-15T06:04:15.452Z,7.20
2023-01-15T06:05:37.489Z,7.20
2023-01-15T06:06:59.694Z,7.20
2023-01-15T06:08:23.275Z,7.20
2023-01-15T06:09:45.472Z,7.20
2023-01-15T06:11:07.798Z,7.20
2023-01-15T06:12:29.917Z,7.20
2023-01-15T06:13:52.015Z,7.20
2023-01-15T06:15:14.129Z,7.20
2023-01-15T06:16:36.386Z,7.20
2023-01-15T06:17:58.474Z,7.20
2023-01-15T06:19:20.569Z,7.20
2023-01-15T06:20:42.883Z,7.20
2023-01-15T06:22:04.917Z,7.20
2023-01-15T06:23:27.009Z,7.20
2023-01-15T06:24:49.082Z,7.20
2023-01-15T06:26:18.179Z,7.20
2023-01-15T06:27:40.296Z,7.20
2023-01-15T06:29:02.342Z,7.20
2023-01-15T06:30:24.464Z,7.20
2023-01-15T06:31:47.573Z,7.10
2023-01-15T06:33:09.698Z,7.20
2023-01-15T06:34:31.968Z,7.10
2023-01-15T06:35:54.103Z,7.10
2023-01-15T06:37:16.148Z,7.10
2023-01-15T06:38:38.895Z,7.10
2023-01-15T06:40:00.953Z,7.10
2023-01-15T06:41:43.529Z,7.10
2023-01-15T06:43:24.361Z,7.10
2023-01-15T06:45:05.316Z,7.10
2023-01-15T06:46:46.068Z,7.00
2023-01-15T06:48:08.418Z,7.00
2023-01-15T06:49:31.480Z,7.00
2023-01-15T06:50:54.604Z,6.90
2023-01-15T06:52:16.713Z,6.90
2023-01-15T06:53:38.812Z,6.90
2023-01-15T06:55:00.821Z,6.90
2023-01-15T06:56:22.847Z,6.80
2023-01-15T06:57:45.219Z,6.80
2023-01-15T06:59:07.287Z,6.80
2023-01-15T07:00:29.409Z,6.80
2023-01-15T07:01:51.669Z,6.80
2023-01-15T07:03:14.407Z,6.70
2023-01-15T07:04:36.537Z,6.70
2023-01-15T07:05:58.625Z,6.70
2023-01-15T07:07:21.614Z,6.60
2023-01-15T07:08:43.660Z,6.60
2023-01-15T07:10:06.220Z,6.60
2023-01-15T07:11:28.317Z,6.60
2023-01-15T07:12:50.539Z,6.60
2023-01-15T07:14:13.554Z,6.50
2023-01-15T07:15:37.399Z,6.50
2023-01-15T07:16:59.460Z,6.50
2023-01-15T07:18:21.560Z,6.50
2023-01-15T07:19:44.025Z,6.50
2023-01-15T07:21:06.255Z,6.50
2023-01-15T07:22:28.329Z,6.50
2023-01-15T07:23:50.376Z,6.50
2023-01-15T07:25:12.459Z,6.50
2023-01-15T07:26:35.026Z,6.50
2023-01-15T07:27:57.156Z,6.50
2023-01-15T07:29:19.392Z,6.50
2023-01-15T07:30:41.448Z,6.50
2023-01-15T07:32:04.343Z,6.50
2023-01-15T07:33:26.418Z,6.50
2023-01-15T07:34:48.438Z,6.40
2023-01-15T07:36:10.783Z,6.40
2023-01-15T07:37:32.835Z,6.40
2023-01-15T07:38:54.960Z,6.40
2023-01-15T07:40:17.294Z,6.50
2023-01-15T07:41:57.992Z,6.50
2023-01-15T07:43:38.519Z,6.50
2023-01-15T07:45:19.207Z,6.50
2023-01-15T07:46:59.740Z,6.50
2023-01-15T07:48:40.441Z,6.50
2023-01-15T07:50:03.565Z,6.50
2023-01-15T07:51:25.703Z,6.50
2023-01-15T07:52:47.873Z,6.50
2023-01-15T07:54:09.936Z,6.50
2023-01-15T07:55:32.071Z,6.60
2023-01-15T07:56:54.215Z,6.60
2023-01-15T07:58:16.297Z,6.60
2023-01-15T07:59:38.500Z,6.60
2023-01-15T08:01:00.672Z,6.60
2023-01-15T08:02:22.904Z,6.70
2023-01-15T08:03:45.036Z,6.70
2023-01-15T08:05:08.274Z,6.70
2023-01-15T08:06:30.413Z,6.70
2023-01-15T08:07:52.589Z,6.70
2023-01-15T08:09:14.747Z,6.70
2023-01-15T08:10:56.767Z,6.70
2023-01-15T08:12:37.404Z,6.70
2023-01-15T08:14:18.323Z,6.70
2023-01-15T08:15:43.759Z,6.70
2023-01-15T08:17:05.847Z,6.70
2023-01-15T08:18:27.976Z,6.70
2023-01-15T08:19:50.058Z,6.70
2023-01-15T08:21:16.342Z,6.70
2023-01-15T08:22:40.093Z,6.70
2023-01-15T08:24:02.742Z,6.70
2023-01-15T08:25:25.709Z,6.70
2023-01-15T08:26:47.815Z,6.70
2023-01-15T08:28:09.936Z,6.70
2023-01-15T08:29:32.127Z,6.80
2023-01-15T08:30:54.231Z,6.70
2023-01-15T08:32:16.330Z,6.70
2023-01-15T08:33:38.448Z,6.80
2023-01-15T08:35:00.528Z,6.80
2023-01-15T08:36:22.690Z,6.80
2023-01-15T08:37:44.960Z,6.80
2023-01-15T08:39:06.995Z,6.80
2023-01-15T08:40:29.101Z,6.80
2023-01-15T08:41:51.131Z,6.90
2023-01-15T08:43:13.197Z,6.90
2023-01-15T08:44:35.313Z,6.90
2023-01-15T08:45:59.088Z,6.90
2023-01-15T08:47:21.424Z,6.90
2023-01-15T08:48:44.661Z,6.90
2023-01-15T08:50:08.620Z,6.90
2023-01-15T08:51:30.768Z,6.90
2023-01-15T08:52:52.811Z,6.90
2023-01-15T08:54:14.891Z,7.00
2023-01-15T08:55:38.283Z,7.00
2023-01-15T08:57:00.981Z,7.00
2023-01-15T08:58:23.057Z,7.00
2023-01-15T08:59:45.260Z,7.00
2023-01-15T09:01:09.340Z,7.00
2023-01-15T09:02:31.483Z,7.00
2023-01-15T09:03:53.550Z,7.00
2023-01-15T09:05:15.669Z,7.00
2023-01-15T09:06:37.750Z,7.00
2023-01-15T09:07:59.829Z,7.00
2023-01-15T09:09:22.328Z,7.00
2023-01-15T09:10:44.357Z,7.00
2023-01-15T09:12:06.668Z,6.90
2023-01-15T09:13:30.151Z,6.90
2023-01-15T09:14:58.773Z,6.90
2023-01-15T09:16:23.984Z,6.90
2023-01-15T09:17:46.118Z,6.90
2023-01-15T09:19:09.786Z,6.90
2023-01-15T09:20:34.036Z,7.00
2023-01-15T09:21:56.221Z,6.90
2023-01-15T09:23:18.358Z,7.00
2023-01-15T09:24:40.493Z,7.00
2023-01-15T09:26:06.070Z,7.00
2023-01-15T09:27:28.736Z,7.00
2023-01-15T09:28:51.281Z,7.00
2023-01-15T09:30:18.260Z,7.10
2023-01-15T09:31:40.398Z,7.10
2023-01-15T09:33:02.431Z,7.10
2023-01-15T09:34:24.537Z,7.10
2023-01-15T09:35:46.974Z,7.10
2023-01-15T09:37:09.364Z,7.10
2023-01-15T09:38:34.417Z,7.10
2023-01-15T09:39:56.544Z,7.10
2023-01-15T09:41:38.109Z,7.10
2023-01-15T09:43:08.542Z,7.20
2023-01-15T09:45:05.307Z,7.10
2023-01-15T09:46:41.973Z,7.10
2023-01-15T09:48:36.215Z,7.10
2023-01-15T09:50:14.029Z,7.10
2023-01-15T09:51:48.620Z,7.10
2023-01-15T09:53:22.902Z,7.10
2023-01-15T09:55:02.365Z,7.10
2023-01-15T09:56:30.366Z,7.10
2023-01-15T09:57:55.470Z,7.10
2023-01-15T09:59:39.871Z,7.10
2023-01-15T10:01:02.799Z,7.10
2023-01-15T10:02:27.505Z,7.20
2023-01-15T10:03:52.585Z,7.20
2023-01-15T10:05:23.576Z,7.30
2023-01-15T10:07:00.730Z,7.30
2023-01-15T10:08:28.941Z,7.30
2023-01-15T10:10:10.260Z,7.30
2023-01-15T10:11:57.721Z,7.30
2023-01-15T10:13:59.743Z,7.30
2023-01-15T10:15:24.545Z,7.20
2023-01-15T10:16:46.761Z,7.20
2023-01-15T10:18:17.727Z,7.20
2023-01-15T10:19:44.879Z,7.20
2023-01-15T10:21:16.099Z,7.20
2023-01-15T10:23:07.835Z,7.30
2023-01-15T10:24:29.985Z,7.30
2023-01-15T10:26:00.447Z,7.30
2023-01-15T10:27:25.304Z,7.30
2023-01-15T10:28:57.725Z,7.40
2023-01-15T10:30:37.665Z,7.40
2023-01-15T10:32:02.841Z,7.40
2023-01-15T10:33:48.145Z,7.50
2023-01-15T10:35:21.664Z,7.50
2023-01-15T10:36:53.178Z,7.50
2023-01-15T10:38:21.193Z,7.50
2023-01-15T10:40:14.574Z,7.50
2023-01-15T10:41:52.305Z,7.50
2023-01-15T10:43:42.882Z,7.50
2023-01-15T10:45:20.761Z,7.50
2023-01-15T10:46:46.977Z,7.50
2023-01-15T10:48:28.714Z,7.40
2023-01-15T10:49:51.288Z,7.40
2023-01-15T10:51:21.357Z,7.40
2023-01-15T10:52:47.277Z,7.40
2023-01-15T10:54:21.163Z,7.40
2023-01-15T10:55:47.682Z,7.40
2023-01-15T10:57:31.311Z,7.50
2023-01-15T10:59:22.164Z,7.40
2023-01-15T11:00:52.218Z,7.50
2023-01-15T11:02:23.442Z,7.50
2023-01-15T11:03:45.933Z,7.50
2023-01-15T11:05:15.556Z,7.50
2023-01-15T11:06:37.875Z,7.50
2023-01-15T11:08:34.237Z,7.60
2023-01-15T11:09:44.926Z,7.60
2023-01-15T11:11:49.326Z,7.60
2023-01-15T11:13:42.693Z,7.60
2023-01-15T11:15:33.492Z,7.60
2023-01-15T11:17:08.102Z,7.60
2023-01-15T11:18:53.286Z,7.60
2023-01-15T11:20:24.337Z,7.60
2023-01-15T11:21:46.736Z,7.60
2023-01-15T11:23:18.269Z,7.70
2023-01-15T11:24:50.251Z,7.70
2023-01-15T11:26:28.068Z,7.60
2023-01-15T11:27:50.489Z,7.60
2023-01-15T11:29:15.575Z,7.60
2023-01-15T11:30:39.692Z,7.60
2023-01-15T11:32:01.909Z,7.70
2023-01-15T11:33:27.840Z,7.70
2023-01-15T11:34:59.058Z,7.70
2023-01-15T11:36:25.299Z,7.70
2023-01-15T11:37:47.352Z,7.80
2023-01-15T11:39:30.912Z,7.70
2023-01-15T11:40:55.155Z,7.70
2023-01-15T11:42:36.748Z,7.70
2023-01-15T11:44:17.465Z,7.70
2023-01-15T11:46:09.676Z,7.70
2023-01-15T11:47:50.514Z,7.70
2023-01-15T11:49:36.494Z,7.70
2023-01-15T11:51:14.744Z,7.60
2023-01-15T11:52:50.355Z,7.70
2023-01-15T11:54:15.149Z,7.70
2023-01-15T11:55:37.716Z,7.70
2023-01-15T11:56:59.977Z,7.60
2023-01-15T11:58:24.819Z,7.60
2023-01-15T11:59:50.033Z,7.60
2023-01-15T12:01:50.251Z,7.60
2023-01-15T12:03:18.880Z,7.60
2023-01-15T12:04:55.092Z,7.60
2023-01-15T12:06:20.595Z,7.60
2023-01-15T12:07:43.216Z,7.70
2023-01-15T12:09:25.121Z,7.70
2023-01-15T12:11:21.126Z,7.70
2023-01-15T12:13:09.395Z,7.80
2023-01-15T12:14:44.320Z,7.80
2023-01-15T12:16:25.181Z,7.90
2023-01-15T12:17:56.988Z,7.90
2023-01-15T12:19:55.092Z,7.90
2023-01-15T12:21:42.286Z,7.90
2023-01-15T12:23:47.788Z,7.90
2023-01-15T12:25:35.011Z,7.90
2023-01-15T12:27:00.191Z,7.90
2023-01-15T12:28:47.836Z,7.90
2023-01-15T12:30:40.790Z,7.90
2023-01-15T12:32:10.043Z,7.90
2023-01-15T12:33:45.434Z,7.80
2023-01-15T12:35:28.679Z,7.80
2023-01-15T12:37:49.195Z,7.70
2023-01-15T12:39:32.136Z,7.70
2023-01-15T12:41:02.164Z,7.70
2023-01-15T12:42:44.211Z,7.80
2023-01-15T12:44:28.245Z,7.80
2023-01-15T12:45:54.034Z,7.90
2023-01-15T12:47:22.098Z,7.90
2023-01-15T12:48:54.573Z,7.90
2023-01-15T12:50:25.575Z,7.90
2023-01-15T12:51:54.414Z,7.90
2023-01-15T12:53:45.879Z,7.80
2023-01-15T12:55:10.924Z,7.80
2023-01-15T12:56:58.315Z,7.70
2023-01-15T12:58:40.618Z,7.70
2023-01-15T13:00:27.377Z,7.80
2023-01-15T13:01:58.867Z,8.00
2023-01-15T13:03:30.312Z,8.30
2023-01-15T13:05:19.379Z,8.60
2023-01-15T13:06:48.489Z,8.70
2023-01-15T13:08:28.494Z,8.70
2023-01-15T13:10:16.740Z,8.50
2023-01-15T13:11:38.832Z,8.40
2023-01-15T13:13:24.434Z,8.10
2023-01-15T13:14:47.019Z,7.90
2023-01-15T13:16:22.565Z,7.80
2023-01-15T13:18:08.133Z,7.70
2023-01-15T13:19:51.067Z,7.70
2023-01-15T13:21:16.190Z,7.70
2023-01-15T13:22:50.534Z,7.70
2023-01-15T13:24:18.684Z,7.70
2023-01-15T13:25:46.697Z,7.80
2023-01-15T13:27:32.894Z,7.80
2023-01-15T13:29:14.888Z,7.80
2023-01-15T13:31:07.465Z,7.80
2023-01-15T13:32:34.918Z,7.80
2023-01-15T13:34:01.657Z,7.80
2023-01-15T13:35:33.701Z,7.80
2023-01-15T13:37:02.333Z,7.70
2023-01-15T13:38:29.319Z,7.70
2023-01-15T13:39:55.733Z,7.70
2023-01-15T13:41:43.522Z,7.70
2023-01-15T13:43:08.299Z,7.70
2023-01-15T13:44:36.493Z,7.70
2023-01-15T13:45:59.440Z,7.70
2023-01-15T13:47:28.220Z,7.70
2023-01-15T13:48:52.357Z,7.70
2023-01-15T13:50:19.581Z,7.70
2023-01-15T13:51:43.594Z,7.70
2023-01-15T13:53:26.538Z,7.70
2023-01-15T13:54:49.401Z,7.70
2023-01-15T13:56:15.744Z,7.70
2023-01-15T13:57:41.168Z,7.80
2023-01-15T13:59:06.197Z,7.90
2023-01-15T14:00:28.731Z,8.10
2023-01-15T14:01:50.977Z,8.20
2023-01-15T14:03:38.082Z,8.30
2023-01-15T14:05:12.114Z,8.30
2023-01-15T14:06:51.378Z,8.30
2023-01-15T14:08:17.417Z,8.20
2023-01-15T14:09:39.569Z,8.10
2023-01-15T14:11:03.111Z,7.90
2023-01-15T14:12:39.987Z,7.80
2023-01-15T14:14:32.692Z,7.70
2023-01-15T14:16:23.712Z,7.50
2023-01-15T14:18:08.643Z,7.40
2023-01-15T14:19:30.767Z,7.30
2023-01-15T14:20:52.761Z,7.30
2023-01-15T14:22:36.344Z,7.20
2023-01-15T14:24:19.829Z,7.10
2023-01-15T14:26:02.306Z,7.10
2023-01-15T14:27:49.658Z,7.00
2023-01-15T14:29:43.915Z,7.00
2023-01-15T14:31:21.362Z,7.00
2023-01-15T14:33:28.487Z,7.00
2023-01-15T14:34:59.195Z,7.00
2023-01-15T14:36:26.518Z,7.00
2023-01-15T14:37:54.656Z,6.90
2023-01-15T14:39:45.034Z,6.90
2023-01-15T14:41:07.499Z,6.80
2023-01-15T14:42:51.159Z,6.80
2023-01-15T14:44:13.383Z,6.80
2023-01-15T14:45:44.917Z,6.80
2023-01-15T14:47:34.255Z,6.80
2023-01-15T14:48:56.435Z,6.70
2023-01-15T14:50:42.300Z,6.70
2023-01-15T14:52:04.588Z,6.60
2023-01-15T14:53:44.921Z,6.60
2023-01-15T14:55:10.305Z,6.60
2023-01-15T14:56:45.141Z,6.60
2023-01-15T14:58:37.315Z,6.60
2023-01-15T15:00:03.943Z,6.60
2023-01-15T15:01:35.288Z,6.60
2023-01-15T15:02:59.828Z,6.60
2023-01-15T15:04:22.018Z,6.50
2023-01-15T15:05:45.710Z,6.50
2023-01-15T15:07:16.739Z,6.40
2023-01-15T15:08:41.523Z,6.40
2023-01-15T15:10:25.345Z,6.40
2023-01-15T15:12:08.216Z,6.40
2023-01-15T15:13:35.805Z,6.40
2023-01-15T15:15:03.481Z,6.40
2023-01-15T15:16:31.743Z,6.40
2023-01-15T15:18:08.108Z,6.40
2023-01-15T15:19:45.807Z,6.40
2023-01-15T15:21:19.885Z,6.40
2023-01-15T15:22:45.422Z,6.40
2023-01-15T15:24:32.998Z,6.40
2023-01-15T15:26:07.255Z,6.40
2023-01-15T15:27:29.583Z,6.40
2023-01-15T15:29:00.685Z,6.40
2023-01-15T15:30:22.787Z,6.40
2023-01-15T15:31:48.037Z,6.40
2023-01-15T15:33:23.251Z,6.40
2023-01-15T15:34:50.937Z,6.30
2023-01-15T15:36:13.075Z,6.30
2023-01-15T15:37:35.202Z,6.30
2023-01-15T15:39:16.200Z,6.30
2023-01-15T15:40:39.583Z,6.30
2023-01-15T15:42:39.323Z,6.30
2023-01-15T15:44:21.207Z,6.30
2023-01-15T15:46:13.513Z,6.30
2023-01-15T15:48:00.317Z,6.30
2023-01-15T15:49:23.183Z,6.30
2023-01-15T15:50:48.354Z,6.20
2023-01-15T15:52:23.985Z,6.20
2023-01-15T15:53:46.052Z,6.20
2023-01-15T15:55:16.561Z,6.20
2023-01-15T15:56:42.965Z,6.20
2023-01-15T15:58:06.667Z,6.20
2023-01-15T15:59:44.175Z,6.30
2023-01-15T16:01:11.649Z,6.30
2023-01-15T16:02:44.312Z,6.30
2023-01-15T16:04:06.670Z,6.30
2023-01-15T16:05:31.762Z,6.30
2023-01-15T16:06:53.906Z,6.30
2023-01-15T16:08:16.120Z,6.30
2023-01-15T16:09:39.905Z,6.30
2023-01-15T16:11:06.673Z,6.30
2023-01-15T16:12:31.817Z,6.30
2023-01-15T16:13:56.727Z,6.30
2023-01-15T16:15:27.001Z,6.40
2023-01-15T16:16:50.851Z,6.40
2023-01-15T16:18:24.300Z,6.40
2023-01-15T16:19:46.927Z,6.50
2023-01-15T16:21:10.876Z,6.50
2023-01-15T16:22:33.111Z,6.60
2023-01-15T16:24:03.617Z,6.70
2023-01-15T16:25:30.962Z,6.70
2023-01-15T16:27:07.493Z,6.70
2023-01-15T16:28:47.514Z,6.80
2023-01-15T16:30:15.890Z,6.80
2023-01-15T16:31:38.551Z,6.80
2023-01-15T16:33:07.712Z,6.80
2023-01-15T16:34:32.800Z,6.80
2023-01-15T16:35:59.648Z,6.80
2023-01-15T16:37:32.754Z,6.80
2023-01-15T16:38:55.629Z,6.80
2023-01-15T16:40:31.017Z,6.80
2023-01-15T16:41:57.796Z,6.80
2023-01-15T16:43:23.651Z,6.80
2023-01-15T16:44:53.057Z,6.80
2023-01-15T16:46:20.151Z,6.70
2023-01-15T16:48:05.857Z,6.80
2023-01-15T16:49:30.884Z,6.70
2023-01-15T16:50:53.254Z,6.70
2023-01-15T16:52:51.953Z,6.70
2023-01-15T16:54:29.435Z,6.80
2023-01-15T16:55:55.021Z,6.80
2023-01-15T16:57:43.295Z,6.80
2023-01-15T16:59:16.372Z,6.90
2023-01-15T17:00:40.091Z,6.90
2023-01-15T17:02:02.324Z,7.00
2023-01-15T17:03:28.028Z,7.00
2023-01-15T17:04:51.901Z,7.10
2023-01-15T17:06:16.067Z,7.10
2023-01-15T17:07:39.052Z,7.10
2023-01-15T17:09:01.397Z,7.10
2023-01-15T17:10:28.030Z,7.10
2023-01-15T17:11:51.971Z,7.20
2023-01-15T17:13:21.779Z,7.20
2023-01-15T17:14:43.887Z,7.20
2023-01-15T17:16:20.969Z,7.20
2023-01-15T17:17:45.215Z,7.20
2023-01-15T17:19:11.325Z,7.20
2023-01-15T17:20:34.676Z,7.20
2023-01-15T17:21:56.797Z,7.20
2023-01-15T17:23:25.115Z,7.10
2023-01-15T17:24:49.017Z,7.10
2023-01-15T17:26:19.402Z,7.20
2023-01-15T17:27:41.511Z,7.10
2023-01-15T17:29:03.605Z,7.20
2023-01-15T17:30:31.234Z,7.20
2023-01-15T17:31:53.444Z,7.20
2023-01-15T17:33:15.670Z,7.20
2023-01-15T17:34:37.834Z,7.30
2023-01-15T17:36:01.267Z,7.20
2023-01-15T17:37:23.827Z,7.30
2023-01-15T17:38:46.352Z,7.30
2023-01-15T17:40:09.145Z,7.30
2023-01-15T17:41:31.338Z,7.30
2023-01-15T17:42:59.054Z,7.30
2023-01-15T17:44:21.170Z,7.30
2023-01-15T17:45:43.624Z,7.30
2023-01-15T17:47:05.942Z,7.30
2023-01-15T17:48:28.119Z,7.30
2023-01-15T17:49:50.205Z,7.30
2023-01-15T17:51:15.643Z,7.30
2023-01-15T17:52:37.778Z,7.30
2023-01-15T17:53:59.907Z,7.30
2023-01-15T17:55:42.298Z,7.30
2023-01-15T17:57:22.964Z,7.30
2023-01-15T17:59:03.614Z,7.30
2023-01-15T18:00:44.424Z,7.30
2023-01-15T18:02:32.373Z,7.30
2023-01-15T18:04:13.368Z,7.40
2023-01-15T18:05:35.694Z,7.40
2023-01-15T18:06:58.007Z,7.30
2023-01-15T18:08:20.125Z,7.30
2023-01-15T18:09:43.206Z,7.40
2023-01-15T18:11:05.602Z,7.30
2023-01-15T18:12:27.931Z,7.40
2023-01-15T18:13:50.494Z,7.40
2023-01-15T18:15:13.416Z,7.40
2023-01-15T18:16:35.569Z,7.40
2023-01-15T18:17:57.657Z,7.40
2023-01-15T18:19:19.755Z,7.40
2023-01-15T18:20:41.879Z,7.40
2023-01-15T18:22:04.096Z,7.40
2023-01-15T18:23:26.473Z,7.40
2023-01-15T18:24:48.544Z,7.40
2023-01-15T18:26:10.679Z,7.40
2023-01-15T18:27:33.275Z,7.40
2023-01-15T18:28:55.385Z,7.50
2023-01-15T18:30:17.769Z,7.50
2023-01-15T18:31:40.684Z,7.40
2023-01-15T18:33:03.039Z,7.40
2023-01-15T18:34:25.209Z,7.40
2023-01-15T18:35:47.296Z,7.40
2023-01-15T18:37:09.444Z,7.40
2023-01-15T18:38:33.635Z,7.40
2023-01-15T18:39:55.728Z,7.40
2023-01-15T18:41:35.983Z,7.40
2023-01-15T18:43:17.055Z,7.40
2023-01-15T18:44:57.899Z,7.40
2023-01-15T18:46:40.670Z,7.40
2023-01-15T18:48:02.879Z,7.40
2023-01-15T18:49:25.079Z,7.40
2023-01-15T18:50:48.821Z,7.30
2023-01-15T18:52:34.746Z,7.30
2023-01-15T18:53:56.814Z,7.30
2023-01-15T18:55:26.437Z,7.30
2023-01-15T18:56:48.565Z,7.30
2023-01-15T18:58:10.782Z,7.30
2023-01-15T18:59:33.494Z,7.30
2023-01-15T19:00:55.865Z,7.20
2023-01-15T19:02:20.068Z,7.20
2023-01-15T19:03:42.157Z,7.20
2023-01-15T19:05:04.942Z,7.10
2023-01-15T19:06:27.023Z,7.20
2023-01-15T19:07:49.196Z,7.20
2023-01-15T19:09:16.322Z,7.20
2023-01-15T19:10:38.395Z,7.20
2023-01-15T19:12:00.563Z,7.20
2023-01-15T19:13:22.657Z,7.10
2023-01-15T19:15:03.194Z,7.10
2023-01-15T19:16:43.697Z,7.10
2023-01-15T19:18:24.732Z,7.00
2023-01-15T19:19:46.847Z,7.00
2023-01-15T19:21:10.433Z,6.90
2023-01-15T19:22:51.291Z,6.90
2023-01-15T19:24:14.019Z,6.90
2023-01-15T19:25:38.997Z,6.90
2023-01-15T19:27:01.659Z,6.90
2023-01-15T19:28:23.976Z,6.90
2023-01-15T19:29:46.090Z,6.90
2023-01-15T19:31:27.912Z,6.90
2023-01-15T19:32:50.073Z,6.90
2023-01-15T19:34:33.084Z,6.90
2023-01-15T19:35:54.405Z,6.90
2023-01-15T19:37:16.544Z,7.00
2023-01-15T19:38:41.009Z,7.00